Cameron Park, New South Wales

12:48 AM AEST on September 05, 2015 (GMT +1000)
INEWSOUT101 | | Change Station
CLOSE
Current Station
Personal Weather Station
Location: Edgeworth, NEW SOUTH WALES
Elevation: 95 ft
Nearby Weather Stations

Elev 95 ft 32.92 °S, 151.62 °E | Updated 0 second ago

Light Rain
Light Rain
55.0 °F
Feels Like 55.0 °F
N
0.0
Wind Variable Wind from WSW
Gusts 0.0 mph

Today
High -- | Low -- °F
--% Chance of Precip.
Yesterday
High -- | Low -- °F
Precip. -- in
6:06 AM 5:38 PM
Waning Gibbous, 59% visible
Pressure 30.18 in
Visibility 3.1 miles
Clouds Mostly Cloudy 3300 ft
Overcast 9600 ft
Dew Point 51 °F
Humidity 87%
Rainfall 0.10 in
Snow Depth Not available.
UV 0 out of 12
Pollen Not available.
Air Quality Not available.
Flu Activity Not available.
SPECI YWLM 041430Z AUTO 30004KT 5000 -RA BKN033 OVC096 12/12 Q1022
Pressure 30.18 in
Visibility 3.1 miles
Clouds Mostly Cloudy 3300 ft
Overcast 9600 ft
Dew Point 51 °F
Humidity 87%
Rainfall 0.10 in
Snow Depth Not available.
UV 0 out of 12
Pollen Not available.
Air Quality Not available.
Flu Activity Not available.
SPECI YWLM 041430Z AUTO 30004KT 5000 -RA BKN033 OVC096 12/12 Q1022

10-Day Weather Forecast

×

Almanac

Astronomy

Sep. 05, 2015 Rise Set
Actual Time
Civil Twilight
Nautical Twilight
Astronomical Twilight
Moon
Length of Visible Light
Length of Day
Tomorrow will be .
, % of the Moon is Illuminated

Today's Extremes

Country Highs Country Lows

Community

WunderPhotos

Upload Photos

1,852,187 photos uploaded!

WunderBlogs® & News

Nearby

Air Quality

  Air Quality AQ Index Pollutant
Not available.

Snow Depth

Station Depth Elevation

Earthquake Activity

City Distance Mag. Time & Date
Minimum magnitude displayed is 2.5.

Coastal Water Temperatures

Place Temperature

Stations

Nearby Weather Stations

Station Location Temp. Windchill Dew Point Humidity Wind Precip. Elev Updated Type